createdAt,value
2022-09-04T00:01:45.094Z,95535.81
2022-09-04T00:04:25.582Z,95534.44
2022-09-04T00:07:01.367Z,95537.59
2022-09-04T00:09:34.186Z,95535.09
2022-09-04T00:12:08.669Z,95538.63
2022-09-04T00:14:44.268Z,95540.84
2022-09-04T00:17:15.554Z,95538.69
2022-09-04T00:19:46.353Z,95543.34
2022-09-04T00:22:26.523Z,95534.44
2022-09-04T00:25:03.441Z,95542.16
2022-09-04T00:27:43.521Z,95538.41
2022-09-04T00:30:15.197Z,95536.78
2022-09-04T00:32:46.412Z,95546.56
2022-09-04T00:35:17.930Z,95542.97
2022-09-04T00:37:51.931Z,95550.19
2022-09-04T00:40:31.225Z,95551.22
2022-09-04T00:43:57.105Z,95545.19
2022-09-04T00:46:51.993Z,95551.44
2022-09-04T00:49:36.536Z,95552.13
2022-09-04T00:52:10.887Z,95554.84
2022-09-04T00:55:17.860Z,95551.03
2022-09-04T00:58:00.275Z,95544.78
2022-09-04T01:00:30.771Z,95554.84
2022-09-04T01:03:32.188Z,95555.88
2022-09-04T01:06:29.492Z,95557.50
2022-09-04T01:09:25.482Z,95559.13
2022-09-04T01:12:02.710Z,95552.78
2022-09-04T01:14:41.281Z,95560.75
2022-09-04T01:17:19.459Z,95563.47
2022-09-04T01:19:59.292Z,95558.84
2022-09-04T01:22:57.497Z,95562.78
2022-09-04T01:25:37.746Z,95558.13
2022-09-04T01:28:10.807Z,95561.78
2022-09-04T01:30:47.610Z,95569.84
2022-09-04T01:33:24.206Z,95573.31
2022-09-04T01:36:03.306Z,95573.53
2022-09-04T01:38:37.947Z,95577.56
2022-09-04T01:41:16.803Z,95572.63
2022-09-04T01:43:46.103Z,95572.81
2022-09-04T01:46:32.375Z,95570.81
2022-09-04T01:49:08.753Z,95564.28
2022-09-04T01:51:44.188Z,95578.41
2022-09-04T01:54:35.852Z,95573.47
2022-09-04T01:57:13.455Z,95574.28
2022-09-04T01:59:54.311Z,95574.56
2022-09-04T02:02:30.012Z,95568.81
2022-09-04T02:05:08.639Z,95577.31
2022-09-04T02:07:44.662Z,95568.53
2022-09-04T02:10:23.646Z,95565.50
2022-09-04T02:13:04.031Z,95572.56
2022-09-04T02:15:43.157Z,95569.63
2022-09-04T02:18:20.278Z,95577.50
2022-09-04T02:21:01.136Z,95573.16
2022-09-04T02:23:41.957Z,95575.38
2022-09-04T02:26:18.352Z,95577.00
2022-09-04T02:28:56.455Z,95580.25
2022-09-04T02:31:38.902Z,95580.53
2022-09-04T02:34:12.368Z,95581.13
2022-09-04T02:36:50.304Z,95580.03
2022-09-04T02:39:35.900Z,95577.59
2022-09-04T02:42:13.792Z,95580.63
2022-09-04T02:44:52.793Z,95586.06
2022-09-04T02:47:29.251Z,95579.22
2022-09-04T02:50:04.488Z,95577.59
2022-09-04T02:53:03.321Z,95582.25
2022-09-04T02:55:46.453Z,95579.28
2022-09-04T02:58:25.477Z,95581.00
2022-09-04T03:01:04.336Z,95577.16
2022-09-04T03:03:41.920Z,95581.00
2022-09-04T03:06:13.540Z,95584.53
2022-09-04T03:08:48.105Z,95591.69
2022-09-04T03:11:20.459Z,95586.31
2022-09-04T03:13:57.614Z,95584.28
2022-09-04T03:16:31.153Z,95583.84
2022-09-04T03:19:17.045Z,95590.19
2022-09-04T03:21:54.785Z,95585.91
2022-09-04T03:24:29.130Z,95590.66
2022-09-04T03:27:01.952Z,95589.16
2022-09-04T03:29:39.359Z,95595.78
2022-09-04T03:32:17.711Z,95595.09
2022-09-04T03:34:56.205Z,95590.47
2022-09-04T03:37:53.880Z,95597.22
2022-09-04T03:40:35.257Z,95595.84
2022-09-04T03:43:26.325Z,95596.06
2022-09-04T03:46:04.779Z,95601.22
2022-09-04T03:48:48.034Z,95598.72
2022-09-04T03:51:27.600Z,95608.44
2022-09-04T03:54:06.028Z,95606.75
2022-09-04T03:56:50.862Z,95599.63
2022-09-04T03:59:37.874Z,95609.19
2022-09-04T04:02:16.173Z,95603.75
2022-09-04T04:05:17.531Z,95604.84
2022-09-04T04:07:55.382Z,95605.66
2022-09-04T04:10:35.486Z,95612.72
2022-09-04T04:13:33.365Z,95615.97
2022-09-04T04:16:18.222Z,95610.53
2022-09-04T04:19:17.652Z,95619.19
2022-09-04T04:21:56.919Z,95620.72
2022-09-04T04:24:39.137Z,95619.91
2022-09-04T04:27:21.835Z,95623.97
2022-09-04T04:30:03.782Z,95625.34
2022-09-04T04:32:48.524Z,95615.88
2022-09-04T04:35:27.166Z,95622.34
2022-09-04T04:38:07.688Z,95634.84
2022-09-04T04:41:00.783Z,95638.38
2022-09-04T04:43:34.812Z,95642.16
2022-09-04T04:46:07.456Z,95650.84
2022-09-04T04:48:58.925Z,95654.38
2022-09-04T04:51:40.833Z,95655.38
2022-09-04T04:54:27.470Z,95660.81
2022-09-04T04:57:05.121Z,95673.03
2022-09-04T04:59:41.072Z,95676.50
2022-09-04T05:02:17.116Z,95675.63
2022-09-04T05:04:54.982Z,95676.97
2022-09-04T05:07:34.755Z,95678.56
2022-09-04T05:10:13.024Z,95676.75
2022-09-04T05:13:03.136Z,95682.41
2022-09-04T05:15:58.090Z,95683.50
2022-09-04T05:18:36.506Z,95690.50
2022-09-04T05:21:15.216Z,95695.94
2022-09-04T05:23:49.692Z,95690.78
2022-09-04T05:26:25.839Z,95698.44
2022-09-04T05:29:02.329Z,95704.91
2022-09-04T05:31:38.800Z,95707.41
2022-09-04T05:34:14.047Z,95713.38
2022-09-04T05:36:50.951Z,95711.41
2022-09-04T05:39:29.175Z,95715.38
2022-09-04T05:42:09.572Z,95716.69
2022-09-04T05:44:53.695Z,95713.53
2022-09-04T05:47:35.476Z,95715.56
2022-09-04T05:50:22.950Z,95719.31
2022-09-04T05:53:15.893Z,95724.81
2022-09-04T05:56:07.315Z,95716.47
2022-09-04T05:58:48.151Z,95722.03
2022-09-04T06:01:32.608Z,95732.81
2022-09-04T06:04:34.354Z,95726.34
2022-09-04T06:07:10.514Z,95739.72
2022-09-04T06:09:55.097Z,95744.78
2022-09-04T06:12:37.141Z,95747.81
2022-09-04T06:15:22.826Z,95741.84
2022-09-04T06:18:03.581Z,95738.41
2022-09-04T06:21:02.325Z,95747.72
2022-09-04T06:23:50.886Z,95749.44
2022-09-04T06:26:49.755Z,95745.06
2022-09-04T06:29:43.413Z,95761.25
2022-09-04T06:32:33.651Z,95762.34
2022-09-04T06:35:22.995Z,95762.03
2022-09-04T06:38:05.157Z,95750.66
2022-09-04T06:40:49.854Z,95755.59
2022-09-04T06:43:29.541Z,95753.41
2022-09-04T06:46:08.180Z,95758.16
2022-09-04T06:48:52.077Z,95756.47
2022-09-04T06:51:36.104Z,95764.41
2022-09-04T06:54:16.263Z,95756.78
2022-09-04T06:57:03.880Z,95765.47
2022-09-04T06:59:55.725Z,95769.19
2022-09-04T07:02:39.046Z,95763.47
2022-09-04T07:05:18.570Z,95763.38
2022-09-04T07:07:58.886Z,95771.84
2022-09-04T07:10:32.820Z,95768.34
2022-09-04T07:13:23.495Z,95768.38
2022-09-04T07:16:11.693Z,95767.44
2022-09-04T07:18:55.483Z,95768.97
2022-09-04T07:21:33.407Z,95767.88
2022-09-04T07:24:12.379Z,95764.00
2022-09-04T07:26:49.055Z,95764.03
2022-09-04T07:29:34.705Z,95774.53
2022-09-04T07:32:09.325Z,95768.28
2022-09-04T07:34:44.598Z,95776.38
2022-09-04T07:37:27.739Z,95777.81
2022-09-04T07:40:11.452Z,95776.06
2022-09-04T07:42:46.868Z,95778.97
2022-09-04T07:45:23.416Z,95779.09
2022-09-04T07:48:03.300Z,95779.75
2022-09-04T07:50:36.396Z,95782.31
2022-09-04T07:53:22.244Z,95781.63
2022-09-04T07:55:53.914Z,95787.75
2022-09-04T07:58:50.143Z,95784.34
2022-09-04T08:01:42.994Z,95802.41
2022-09-04T08:04:39.834Z,95801.38
2022-09-04T08:07:16.963Z,95804.53
2022-09-04T08:10:02.076Z,95812.28
2022-09-04T08:13:04.968Z,95809.47
2022-09-04T08:15:43.614Z,95812.78
2022-09-04T08:18:23.752Z,95811.13
2022-09-04T08:21:05.016Z,95814.09
2022-09-04T08:23:48.561Z,95819.16
2022-09-04T08:26:25.235Z,95803.22
2022-09-04T08:29:21.047Z,95799.38
2022-09-04T08:32:04.483Z,95803.34
2022-09-04T08:34:53.949Z,95811.97
2022-09-04T08:37:27.159Z,95806.19
2022-09-04T08:40:16.793Z,95818.28
2022-09-04T08:43:25.875Z,95811.88
2022-09-04T08:46:32.358Z,95817.44
2022-09-04T08:49:28.522Z,95823.91
2022-09-04T08:52:31.476Z,95824.38
2022-09-04T08:55:37.030Z,95814.16
2022-09-04T08:58:43.301Z,95829.22
2022-09-04T09:01:55.199Z,95814.84
2022-09-04T09:04:49.464Z,95825.06
2022-09-04T09:08:11.028Z,95828.00
2022-09-04T09:10:49.194Z,95828.00
2022-09-04T09:13:49.241Z,95816.75
2022-09-04T09:16:25.868Z,95816.50
2022-09-04T09:19:22.827Z,95821.41
2022-09-04T09:22:10.356Z,95821.50
2022-09-04T09:25:20.511Z,95818.91
2022-09-04T09:28:23.346Z,95810.53
2022-09-04T09:31:24.943Z,95813.16
2022-09-04T09:34:18.932Z,95814.66
2022-09-04T09:37:21.603Z,95812.34
2022-09-04T09:40:22.152Z,95809.97
2022-09-04T09:43:26.861Z,95811.53
2022-09-04T09:46:26.240Z,95805.28
2022-09-04T09:49:34.103Z,95812.88
2022-09-04T09:52:34.295Z,95805.53
2022-09-04T09:55:40.956Z,95789.56
2022-09-04T09:58:41.235Z,95799.19
2022-09-04T10:01:26.108Z,95801.28
2022-09-04T10:04:28.490Z,95798.81
2022-09-04T10:07:50.104Z,95798.75
2022-09-04T10:11:06.932Z,95794.97
2022-09-04T10:14:04.969Z,95796.03
2022-09-04T10:17:12.267Z,95797.53
2022-09-04T10:20:22.567Z,95790.41
2022-09-04T10:23:37.179Z,95792.69
2022-09-04T10:26:25.099Z,95791.25
2022-09-04T10:29:36.611Z,95796.28
2022-09-04T10:32:34.652Z,95797.34
2022-09-04T10:35:18.801Z,95796.28
2022-09-04T10:38:18.995Z,95802.00
2022-09-04T10:41:24.359Z,95795.25
2022-09-04T10:44:18.608Z,95792.03
2022-09-04T10:47:02.168Z,95788.13
2022-09-04T10:49:45.911Z,95786.31
2022-09-04T10:52:57.745Z,95779.34
2022-09-04T10:56:03.940Z,95786.69
2022-09-04T10:58:49.603Z,95786.91
2022-09-04T11:01:44.699Z,95790.94
2022-09-04T11:04:36.528Z,95788.50
2022-09-04T11:07:28.746Z,95791.84
2022-09-04T11:10:19.803Z,95793.16
2022-09-04T11:13:13.556Z,95787.81
2022-09-04T11:15:58.173Z,95791.56
2022-09-04T11:18:58.086Z,95792.06
2022-09-04T11:22:01.172Z,95791.94
2022-09-04T11:25:08.503Z,95792.72
2022-09-04T11:27:53.168Z,95796.84
2022-09-04T11:30:23.742Z,95798.69
2022-09-04T11:33:32.756Z,95791.16
2022-09-04T11:36:39.524Z,95793.19
2022-09-04T11:39:23.528Z,95791.28
2022-09-04T11:42:20.859Z,95799.09
2022-09-04T11:45:21.299Z,95798.97
2022-09-04T11:48:26.605Z,95809.63
2022-09-04T11:51:24.032Z,95797.28
2022-09-04T11:54:33.149Z,95794.03
2022-09-04T11:57:13.924Z,95796.56
2022-09-04T12:00:07.588Z,95803.25
2022-09-04T12:03:11.359Z,95808.75
2022-09-04T12:05:59.077Z,95804.94
2022-09-04T12:09:11.744Z,95804.44
2022-09-04T12:12:26.510Z,95798.91
2022-09-04T12:15:23.329Z,95803.25
2022-09-04T12:18:32.254Z,95805.56
2022-09-04T12:21:19.292Z,95783.66
2022-09-04T12:24:23.563Z,95787.16
2022-09-04T12:27:26.190Z,95785.13
2022-09-04T12:30:06.677Z,95790.25
2022-09-04T12:33:11.557Z,95788.22
2022-09-04T12:36:07.063Z,95788.66
2022-09-04T12:38:56.834Z,95797.31
2022-09-04T12:41:32.683Z,95792.66
2022-09-04T12:44:11.711Z,95794.50
2022-09-04T12:46:55.905Z,95796.69
2022-09-04T12:49:42.024Z,95797.41
2022-09-04T12:52:22.057Z,95790.63
2022-09-04T12:55:04.863Z,95794.63
2022-09-04T12:57:46.648Z,95781.84
2022-09-04T13:00:17.609Z,95790.91
2022-09-04T13:03:02.671Z,95787.16
2022-09-04T13:05:49.860Z,95787.41
2022-09-04T13:08:35.566Z,95782.88
2022-09-04T13:11:17.889Z,95780.03
2022-09-04T13:13:56.765Z,95782.75
2022-09-04T13:16:32.224Z,95783.50
2022-09-04T13:19:10.258Z,95786.50
2022-09-04T13:21:55.638Z,95792.44
2022-09-04T13:24:44.430Z,95783.44
2022-09-04T13:27:40.298Z,95787.78
2022-09-04T13:30:11.769Z,95797.91
2022-09-04T13:32:53.178Z,95799.19
2022-09-04T13:35:36.601Z,95796.72
2022-09-04T13:38:27.117Z,95791.50
2022-09-04T13:41:20.526Z,95787.97
2022-09-04T13:44:05.607Z,95795.13
2022-09-04T13:46:38.916Z,95798.38
2022-09-04T13:49:11.975Z,95789.75
2022-09-04T13:51:45.069Z,95795.94
2022-09-04T13:54:17.841Z,95800.50
2022-09-04T13:56:52.428Z,95797.88
2022-09-04T13:59:24.329Z,95793.06
2022-09-04T14:01:55.956Z,95800.38
2022-09-04T14:04:28.655Z,95785.81
2022-09-04T14:07:07.017Z,95790.81
2022-09-04T14:09:41.410Z,95787.84
2022-09-04T14:12:34.183Z,95791.13
2022-09-04T14:15:19.652Z,95779.72
2022-09-04T14:17:56.791Z,95781.63
2022-09-04T14:20:27.925Z,95792.72
2022-09-04T14:23:08.898Z,95792.50
2022-09-04T14:25:44.205Z,95792.31
2022-09-04T14:28:22.326Z,95793.34
2022-09-04T14:31:02.074Z,95793.88
2022-09-04T14:33:47.527Z,95798.53
2022-09-04T14:36:26.372Z,95799.03
2022-09-04T14:39:27.378Z,95803.69
2022-09-04T14:42:16.324Z,95800.03
2022-09-04T14:44:59.169Z,95801.03
2022-09-04T14:47:37.126Z,95788.59
2022-09-04T14:50:09.693Z,95801.66
2022-09-04T14:52:41.684Z,95801.66
2022-09-04T14:55:16.495Z,95792.91
2022-09-04T14:57:50.520Z,95804.84
2022-09-04T15:00:20.709Z,95802.25
2022-09-04T15:02:58.139Z,95799.97
2022-09-04T15:05:30.092Z,95797.84
2022-09-04T15:08:00.385Z,95798.38
2022-09-04T15:10:38.189Z,95798.22
2022-09-04T15:13:42.385Z,95794.00
2022-09-04T15:16:19.477Z,95800.94
2022-09-04T15:18:56.975Z,95791.09
2022-09-04T15:21:32.943Z,95794.16
2022-09-04T15:24:04.836Z,95793.78
2022-09-04T15:26:42.312Z,95798.25
2022-09-04T15:29:20.043Z,95797.88
2022-09-04T15:31:47.941Z,95803.78
2022-09-04T15:34:25.518Z,95794.75
2022-09-04T15:36:53.859Z,95796.28
2022-09-04T15:39:31.064Z,95796.19
2022-09-04T15:42:01.104Z,95797.25
2022-09-04T15:44:35.254Z,95797.28
2022-09-04T15:47:12.306Z,95798.69
2022-09-04T15:49:48.252Z,95795.09
2022-09-04T15:52:31.756Z,95802.19
2022-09-04T15:55:09.251Z,95798.53
2022-09-04T15:57:50.367Z,95801.88
2022-09-04T16:00:23.822Z,95803.41
2022-09-04T16:02:59.116Z,95800.34
2022-09-04T16:05:41.368Z,95791.78
2022-09-04T16:08:23.553Z,95797.31
2022-09-04T16:11:00.280Z,95793.69
2022-09-04T16:13:43.116Z,95803.09
2022-09-04T16:16:15.143Z,95800.91
2022-09-04T16:18:52.206Z,95800.09
2022-09-04T16:21:32.210Z,95801.25
2022-09-04T16:24:08.994Z,95800.94
2022-09-04T16:26:38.430Z,95798.97
2022-09-04T16:29:15.419Z,95796.66
2022-09-04T16:31:51.956Z,95796.91
2022-09-04T16:34:25.355Z,95799.81
2022-09-04T16:37:02.086Z,95803.31
2022-09-04T16:39:38.924Z,95807.78
2022-09-04T16:42:19.722Z,95807.84
2022-09-04T16:44:54.291Z,95815.16
2022-09-04T16:47:31.694Z,95813.28
2022-09-04T16:50:09.026Z,95809.69
2022-09-04T16:53:12.756Z,95814.31
2022-09-04T16:55:46.973Z,95813.59
2022-09-04T16:58:29.918Z,95815.47
2022-09-04T17:01:15.522Z,95819.25
2022-09-04T17:04:13.565Z,95817.19
2022-09-04T17:06:54.202Z,95824.44
2022-09-04T17:09:32.107Z,95822.66
2022-09-04T17:12:17.398Z,95825.47
2022-09-04T17:14:47.922Z,95823.34
2022-09-04T17:17:29.660Z,95823.25
2022-09-04T17:20:08.322Z,95834.56
2022-09-04T17:29:04.885Z,95823.94
2022-09-04T17:29:10.109Z,95831.34
2022-09-04T17:29:16.515Z,95830.34
2022-09-04T17:31:45.661Z,95835.53
2022-09-04T17:40:34.873Z,95837.09
2022-09-04T17:40:54.608Z,95838.69
2022-09-04T17:40:54.950Z,95843.44
2022-09-04T17:43:24.196Z,95845.34
2022-09-04T17:46:04.566Z,95844.94
2022-09-04T17:48:39.005Z,95850.81
2022-09-04T17:51:09.267Z,95859.97
2022-09-04T17:53:41.171Z,95855.69
2022-09-04T17:56:15.806Z,95862.91
2022-09-04T17:58:53.666Z,95864.94
2022-09-04T18:01:26.154Z,95866.47
2022-09-04T18:04:21.456Z,95868.13
2022-09-04T18:06:56.067Z,95881.03
2022-09-04T18:09:31.993Z,95886.53
2022-09-04T18:12:11.142Z,95888.00
2022-09-04T18:14:48.427Z,95894.13
2022-09-04T18:17:37.450Z,95902.19
2022-09-04T18:20:12.616Z,95900.09
2022-09-04T18:23:14.725Z,95908.44
2022-09-04T18:25:50.892Z,95906.50
2022-09-04T18:28:27.076Z,95910.31
2022-09-04T18:37:11.681Z,95908.84
2022-09-04T18:37:15.978Z,95908.63
2022-09-04T18:37:23.853Z,95907.78
2022-09-04T18:39:50.297Z,95912.41
2022-09-04T18:50:20.301Z,95918.66
2022-09-04T18:50:24.541Z,95929.91
2022-09-04T18:50:40.367Z,95926.78
2022-09-04T18:51:21.225Z,95931.28
2022-09-04T18:53:56.604Z,95928.69
2022-09-04T18:56:29.415Z,95924.75
2022-09-04T18:59:03.312Z,95928.41
2022-09-04T19:01:41.678Z,95930.50
2022-09-04T19:04:35.954Z,95929.19
2022-09-04T19:07:09.149Z,95934.28
2022-09-04T19:09:59.129Z,95937.47
2022-09-04T19:12:47.489Z,95938.66
2022-09-04T19:15:36.892Z,95936.34
2022-09-04T19:18:15.066Z,95934.22
2022-09-04T19:20:49.966Z,95931.63
2022-09-04T19:23:26.679Z,95942.69
2022-09-04T19:25:58.444Z,95934.88
2022-09-04T19:28:35.085Z,95938.06
2022-09-04T19:31:12.714Z,95943.94
2022-09-04T19:33:46.098Z,95943.66
2022-09-04T19:36:23.094Z,95935.84
2022-09-04T19:45:53.487Z,95943.06
2022-09-04T19:46:01.038Z,95942.25
2022-09-04T19:46:06.802Z,95936.88
2022-09-04T19:48:00.279Z,95949.25
2022-09-04T19:53:33.024Z,95948.88
2022-09-04T19:53:40.460Z,95946.22
2022-09-04T19:56:25.116Z,95948.25
2022-09-04T19:58:57.075Z,95944.19
2022-09-04T20:01:30.353Z,95941.59
2022-09-04T20:04:03.423Z,95945.22
2022-09-04T20:06:35.225Z,95942.59
2022-09-04T20:09:11.957Z,95941.56
2022-09-04T20:11:46.285Z,95944.13
2022-09-04T20:14:22.767Z,95940.06
2022-09-04T20:17:04.606Z,95940.16
2022-09-04T20:19:39.865Z,95938.31
2022-09-04T20:22:17.624Z,95945.50
2022-09-04T20:25:02.313Z,95942.25
2022-09-04T20:27:35.979Z,95944.28
2022-09-04T20:30:11.449Z,95942.44
2022-09-04T20:32:48.130Z,95945.28
2022-09-04T20:35:33.983Z,95933.72
2022-09-04T20:38:12.366Z,95938.16
2022-09-04T20:40:46.280Z,95946.16
2022-09-04T20:43:31.516Z,95949.47
2022-09-04T20:49:16.658Z,95946.03
2022-09-04T20:52:52.044Z,95951.25
2022-09-04T20:52:55.882Z,95951.84
2022-09-04T20:55:01.214Z,95953.81
2022-09-04T21:01:16.341Z,95950.56
2022-09-04T21:03:24.382Z,95949.00
2022-09-04T21:03:34.929Z,95943.91
2022-09-04T21:06:25.237Z,95943.41
2022-09-04T21:09:01.938Z,95946.75
2022-09-04T21:11:39.404Z,95946.84
2022-09-04T21:14:17.068Z,95956.72
2022-09-04T21:17:33.504Z,95948.94
2022-09-04T21:20:24.077Z,95949.28
2022-09-04T21:23:05.594Z,95952.38
2022-09-04T21:25:44.745Z,95955.72
2022-09-04T21:28:49.028Z,95957.03
2022-09-04T21:31:44.142Z,95951.16
2022-09-04T21:34:31.193Z,95964.78
2022-09-04T21:37:06.181Z,95967.00
2022-09-04T21:39:52.232Z,95966.25
2022-09-04T21:42:45.871Z,95973.72
2022-09-04T21:45:28.241Z,95976.47
2022-09-04T21:48:28.277Z,95979.78
2022-09-04T21:51:28.652Z,95971.06
2022-09-04T21:54:38.181Z,95979.31
2022-09-04T22:02:32.642Z,95975.28
2022-09-04T22:02:39.038Z,95975.34
2022-09-04T22:04:04.825Z,95976.22
2022-09-04T22:07:11.026Z,95980.34
2022-09-04T22:13:29.799Z,95980.09
2022-09-04T22:13:37.629Z,95973.63
2022-09-04T22:15:32.946Z,95982.69
2022-09-04T22:18:17.387Z,95976.19
2022-09-04T22:21:03.256Z,95971.00
2022-09-04T22:24:18.390Z,95978.94
2022-09-04T22:27:24.441Z,95975.50
2022-09-04T22:30:05.843Z,95967.38
2022-09-04T22:33:24.357Z,95978.03
2022-09-04T22:36:30.771Z,95978.13
2022-09-04T22:39:36.460Z,95980.31
2022-09-04T22:42:44.902Z,95977.91
2022-09-04T22:45:39.968Z,95975.75
2022-09-04T22:48:32.438Z,95977.97
2022-09-04T22:51:18.745Z,95972.81
2022-09-04T22:53:59.971Z,95973.69
2022-09-04T22:56:41.289Z,95972.88
2022-09-04T22:59:39.308Z,95984.34
2022-09-04T23:10:11.150Z,95978.03
2022-09-04T23:13:57.802Z,95977.56
2022-09-04T23:14:02.221Z,95973.47
2022-09-04T23:16:56.758Z,95977.59
2022-09-04T23:26:31.252Z,95976.00
2022-09-04T23:26:41.909Z,95979.34
2022-09-04T23:26:51.091Z,95991.28
2022-09-04T23:29:01.093Z,95980.44
2022-09-04T23:31:48.550Z,95975.03
2022-09-04T23:34:42.631Z,95974.47
2022-09-04T23:37:44.456Z,95972.63
2022-09-04T23:40:44.311Z,95968.28
2022-09-04T23:43:39.472Z,95976.72
2022-09-04T23:46:25.759Z,95973.47
2022-09-04T23:49:35.660Z,95973.50
2022-09-04T23:52:13.559Z,95955.91
2022-09-04T23:55:00.559Z,95968.44
2022-09-04T23:57:35.569Z,95958.13
